sensor_id;sensor_type;location;lat;lon;timestamp;temperature;humidity
1447;DHT22;717;51.522;7.266;2024-02-14T00:00:41;12.00;99.90
1447;DHT22;717;51.522;7.266;2024-02-14T00:03:11;12.00;99.90
1447;DHT22;717;51.522;7.266;2024-02-14T00:05:41;12.00;99.90
1447;DHT22;717;51.522;7.266;2024-02-14T00:08:12;11.90;99.90
1447;DHT22;717;51.522;7.266;2024-02-14T00:10:44;12.00;99.90
1447;DHT22;717;51.522;7.266;2024-02-14T00:13:15;11.90;99.90
1447;DHT22;717;51.522;7.266;2024-02-14T00:15:46;12.00;99.90
1447;DHT22;717;51.522;7.266;2024-02-14T00:18:16;12.00;99.90
1447;DHT22;717;51.522;7.266;2024-02-14T00:20:46;12.00;99.90
1447;DHT22;717;51.522;7.266;2024-02-14T00:23:16;12.00;99.90
1447;DHT22;717;51.522;7.266;2024-02-14T00:25:49;11.90;99.90
1447;DHT22;717;51.522;7.266;2024-02-14T00:28:18;11.90;99.90
1447;DHT22;717;51.522;7.266;2024-02-14T00:30:50;12.00;99.90
1447;DHT22;717;51.522;7.266;2024-02-14T00:33:20;11.90;99.90
1447;DHT22;717;51.522;7.266;2024-02-14T00:35:51;11.90;99.90
1447;DHT22;717;51.522;7.266;2024-02-14T00:38:20;11.90;99.90
1447;DHT22;717;51.522;7.266;2024-02-14T00:40:53;11.80;99.90
1447;DHT22;717;51.522;7.266;2024-02-14T00:43:24;11.80;99.90
1447;DHT22;717;51.522;7.266;2024-02-14T00:45:55;11.80;99.90
1447;DHT22;717;51.522;7.266;2024-02-14T00:48:25;11.80;99.90
1447;DHT22;717;51.522;7.266;2024-02-14T00:50:55;11.80;99.90
1447;DHT22;717;51.522;7.266;2024-02-14T00:53:26;11.80;99.90
1447;DHT22;717;51.522;7.266;2024-02-14T00:55:59;11.70;99.90
1447;DHT22;717;51.522;7.266;2024-02-14T00:58:29;11.70;99.90
1447;DHT22;717;51.522;7.266;2024-02-14T01:00:59;11.70;99.90
1447;DHT22;717;51.522;7.266;2024-02-14T01:03:29;11.70;99.90
1447;DHT22;717;51.522;7.266;2024-02-14T01:05:59;11.70;99.90
1447;DHT22;717;51.522;7.266;2024-02-14T01:08:29;11.70;99.90
1447;DHT22;717;51.522;7.266;2024-02-14T01:11:03;11.60;99.90
1447;DHT22;717;51.522;7.266;2024-02-14T01:13:33;11.60;99.90
1447;DHT22;717;51.522;7.266;2024-02-14T01:16:04;11.60;99.90
1447;DHT22;717;51.522;7.266;2024-02-14T01:18:34;11.60;99.90
1447;DHT22;717;51.522;7.266;2024-02-14T01:21:05;11.60;99.90
1447;DHT22;717;51.522;7.266;2024-02-14T01:23:35;11.60;99.90
1447;DHT22;717;51.522;7.266;2024-02-14T01:26:07;11.50;99.90
1447;DHT22;717;51.522;7.266;2024-02-14T01:28:37;11.60;99.90
1447;DHT22;717;51.522;7.266;2024-02-14T01:31:09;11.60;99.90
1447;DHT22;717;51.522;7.266;2024-02-14T01:33:40;11.60;99.90
1447;DHT22;717;51.522;7.266;2024-02-14T01:36:10;11.60;99.90
1447;DHT22;717;51.522;7.266;2024-02-14T01:38:41;11.40;99.90
1447;DHT22;717;51.522;7.266;2024-02-14T01:41:14;11.40;99.90
1447;DHT22;717;51.522;7.266;2024-02-14T01:43:44;11.50;99.90
1447;DHT22;717;51.522;7.266;2024-02-14T01:46:14;11.40;99.90
1447;DHT22;717;51.522;7.266;2024-02-14T01:48:45;11.40;99.90
1447;DHT22;717;51.522;7.266;2024-02-14T01:51:16;11.40;99.90
1447;DHT22;717;51.522;7.266;2024-02-14T01:53:47;11.50;99.90
1447;DHT22;717;51.522;7.266;2024-02-14T01:56:20;11.50;99.90
1447;DHT22;717;51.522;7.266;2024-02-14T01:58:51;11.40;99.90
1447;DHT22;717;51.522;7.266;2024-02-14T02:01:21;11.50;99.90
1447;DHT22;717;51.522;7.266;2024-02-14T02:03:52;11.40;99.90
1447;DHT22;717;51.522;7.266;2024-02-14T02:06:22;11.50;99.90
1447;DHT22;717;51.522;7.266;2024-02-14T02:08:53;11.50;99.90
1447;DHT22;717;51.522;7.266;2024-02-14T02:11:27;11.60;99.90
1447;DHT22;717;51.522;7.266;2024-02-14T02:13:57;11.60;99.90
1447;DHT22;717;51.522;7.266;2024-02-14T02:16:27;11.50;99.90
1447;DHT22;717;51.522;7.266;2024-02-14T02:18:57;11.50;99.90
1447;DHT22;717;51.522;7.266;2024-02-14T02:21:27;11.50;99.90
1447;DHT22;717;51.522;7.266;2024-02-14T02:24:00;11.50;99.90
1447;DHT22;717;51.522;7.266;2024-02-14T02:26:30;11.50;99.90
1447;DHT22;717;51.522;7.266;2024-02-14T02:29:00;11.50;99.90
1447;DHT22;717;51.522;7.266;2024-02-14T02:31:32;11.60;99.90
1447;DHT22;717;51.522;7.266;2024-02-14T02:34:02;11.60;99.90
1447;DHT22;717;51.522;7.266;2024-02-14T02:36:32;11.60;99.90
1447;DHT22;717;51.522;7.266;2024-02-14T02:39:05;11.60;99.90
1447;DHT22;717;51.522;7.266;2024-02-14T02:41:35;11.60;99.90
1447;DHT22;717;51.522;7.266;2024-02-14T02:44:05;11.60;99.90
1447;DHT22;717;51.522;7.266;2024-02-14T02:46:35;11.60;99.90
1447;DHT22;717;51.522;7.266;2024-02-14T02:49:05;11.70;99.90
1447;DHT22;717;51.522;7.266;2024-02-14T02:51:35;11.60;99.90
1447;DHT22;717;51.522;7.266;2024-02-14T02:54:07;11.60;99.90
1447;DHT22;717;51.522;7.266;2024-02-14T02:56:38;11.70;99.90
1447;DHT22;717;51.522;7.266;2024-02-14T02:59:09;11.70;99.90
1447;DHT22;717;51.522;7.266;2024-02-14T03:01:40;11.70;99.90
1447;DHT22;717;51.522;7.266;2024-02-14T03:04:11;11.70;99.90
1447;DHT22;717;51.522;7.266;2024-02-14T03:06:42;11.70;99.90
1447;DHT22;717;51.522;7.266;2024-02-14T03:09:14;11.70;99.90
1447;DHT22;717;51.522;7.266;2024-02-14T03:11:46;11.80;99.90
1447;DHT22;717;51.522;7.266;2024-02-14T03:14:16;11.80;99.90
1447;DHT22;717;51.522;7.266;2024-02-14T03:16:46;11.80;99.90
1447;DHT22;717;51.522;7.266;2024-02-14T03:19:16;11.80;99.90
1447;DHT22;717;51.522;7.266;2024-02-14T03:21:46;11.80;99.90
1447;DHT22;717;51.522;7.266;2024-02-14T03:24:18;11.80;99.90
1447;DHT22;717;51.522;7.266;2024-02-14T03:26:48;11.90;99.90
1447;DHT22;717;51.522;7.266;2024-02-14T03:29:21;11.90;99.90
1447;DHT22;717;51.522;7.266;2024-02-14T03:31:51;11.90;99.90
1447;DHT22;717;51.522;7.266;2024-02-14T03:34:24;11.90;99.90
1447;DHT22;717;51.522;7.266;2024-02-14T03:36:57;11.90;99.90
1447;DHT22;717;51.522;7.266;2024-02-14T03:39:31;11.90;99.90
1447;DHT22;717;51.522;7.266;2024-02-14T03:42:02;11.90;99.90
1447;DHT22;717;51.522;7.266;2024-02-14T03:44:34;12.00;99.90
1447;DHT22;717;51.522;7.266;2024-02-14T03:47:05;12.00;99.90
1447;DHT22;717;51.522;7.266;2024-02-14T03:49:35;11.90;99.90
1447;DHT22;717;51.522;7.266;2024-02-14T03:52:06;11.90;99.90
1447;DHT22;717;51.522;7.266;2024-02-14T03:54:39;11.90;99.90
1447;DHT22;717;51.522;7.266;2024-02-14T03:57:10;12.00;99.90
1447;DHT22;717;51.522;7.266;2024-02-14T03:59:43;11.90;99.90
1447;DHT22;717;51.522;7.266;2024-02-14T04:02:13;11.90;99.90
1447;DHT22;717;51.522;7.266;2024-02-14T04:04:43;11.90;99.90
1447;DHT22;717;51.522;7.266;2024-02-14T04:07:13;11.80;99.90
1447;DHT22;717;51.522;7.266;2024-02-14T04:09:46;11.80;99.90
1447;DHT22;717;51.522;7.266;2024-02-14T04:12:15;11.80;99.90
1447;DHT22;717;51.522;7.266;2024-02-14T04:14:45;11.80;99.90
1447;DHT22;717;51.522;7.266;2024-02-14T04:17:15;11.90;99.90
1447;DHT22;717;51.522;7.266;2024-02-14T04:19:45;11.90;99.90
1447;DHT22;717;51.522;7.266;2024-02-14T04:22:15;11.90;99.90
1447;DHT22;717;51.522;7.266;2024-02-14T04:24:48;11.90;99.90
1447;DHT22;717;51.522;7.266;2024-02-14T04:27:18;11.80;99.90
1447;DHT22;717;51.522;7.266;2024-02-14T04:29:48;11.80;99.90
1447;DHT22;717;51.522;7.266;2024-02-14T04:32:18;11.80;99.90
1447;DHT22;717;51.522;7.266;2024-02-14T04:34:46;11.80;99.90
1447;DHT22;717;51.522;7.266;2024-02-14T04:37:16;11.80;99.90
1447;DHT22;717;51.522;7.266;2024-02-14T04:39:49;11.80;99.90
1447;DHT22;717;51.522;7.266;2024-02-14T04:42:19;11.90;99.90
1447;DHT22;717;51.522;7.266;2024-02-14T04:44:49;11.90;99.90
1447;DHT22;717;51.522;7.266;2024-02-14T04:47:18;11.90;99.90
1447;DHT22;717;51.522;7.266;2024-02-14T04:49:49;11.90;99.90
1447;DHT22;717;51.522;7.266;2024-02-14T04:52:19;11.80;99.90
1447;DHT22;717;51.522;7.266;2024-02-14T04:54:51;11.80;99.90
1447;DHT22;717;51.522;7.266;2024-02-14T04:57:21;11.80;99.90
1447;DHT22;717;51.522;7.266;2024-02-14T04:59:51;11.80;99.90
1447;DHT22;717;51.522;7.266;2024-02-14T05:02:21;11.80;99.90
1447;DHT22;717;51.522;7.266;2024-02-14T05:04:51;11.90;99.90
1447;DHT22;717;51.522;7.266;2024-02-14T05:07:22;11.90;99.90
1447;DHT22;717;51.522;7.266;2024-02-14T05:09:54;12.00;99.90
1447;DHT22;717;51.522;7.266;2024-02-14T05:12:24;12.00;99.90
1447;DHT22;717;51.522;7.266;2024-02-14T05:14:54;12.00;99.90
1447;DHT22;717;51.522;7.266;2024-02-14T05:17:24;12.00;99.90
1447;DHT22;717;51.522;7.266;2024-02-14T05:19:54;12.00;99.90
1447;DHT22;717;51.522;7.266;2024-02-14T05:22:24;12.00;99.90
1447;DHT22;717;51.522;7.266;2024-02-14T05:24:57;12.20;99.90
1447;DHT22;717;51.522;7.266;2024-02-14T05:27:27;12.20;99.90
1447;DHT22;717;51.522;7.266;2024-02-14T05:29:57;12.20;99.90
1447;DHT22;717;51.522;7.266;2024-02-14T05:32:27;12.20;99.90
1447;DHT22;717;51.522;7.266;2024-02-14T05:34:57;12.20;99.90
1447;DHT22;717;51.522;7.266;2024-02-14T05:37:28;12.20;99.90
1447;DHT22;717;51.522;7.266;2024-02-14T05:40:04;12.30;99.90
1447;DHT22;717;51.522;7.266;2024-02-14T05:42:35;12.40;99.90
1447;DHT22;717;51.522;7.266;2024-02-14T05:45:06;12.40;99.90
1447;DHT22;717;51.522;7.266;2024-02-14T05:47:37;12.30;99.90
1447;DHT22;717;51.522;7.266;2024-02-14T05:50:07;12.30;99.90
1447;DHT22;717;51.522;7.266;2024-02-14T05:52:38;12.30;99.90
1447;DHT22;717;51.522;7.266;2024-02-14T05:55:11;12.40;99.90
1447;DHT22;717;51.522;7.266;2024-02-14T05:57:42;12.40;99.90
1447;DHT22;717;51.522;7.266;2024-02-14T06:00:12;12.40;99.90
1447;DHT22;717;51.522;7.266;2024-02-14T06:02:44;12.40;99.90
1447;DHT22;717;51.522;7.266;2024-02-14T06:05:16;12.40;99.90
1447;DHT22;717;51.522;7.266;2024-02-14T06:07:45;12.40;99.90
1447;DHT22;717;51.522;7.266;2024-02-14T06:10:19;12.40;99.90
1447;DHT22;717;51.522;7.266;2024-02-14T06:12:49;12.40;99.90
1447;DHT22;717;51.522;7.266;2024-02-14T06:15:19;12.40;99.90
1447;DHT22;717;51.522;7.266;2024-02-14T06:17:49;12.50;99.90
1447;DHT22;717;51.522;7.266;2024-02-14T06:20:19;12.40;99.90
1447;DHT22;717;51.522;7.266;2024-02-14T06:22:49;12.40;99.90
1447;DHT22;717;51.522;7.266;2024-02-14T06:25:34;12.50;99.90
1447;DHT22;717;51.522;7.266;2024-02-14T06:28:04;12.50;99.90
1447;DHT22;717;51.522;7.266;2024-02-14T06:30:34;12.50;99.90
1447;DHT22;717;51.522;7.266;2024-02-14T06:33:04;12.50;99.90
1447;DHT22;717;51.522;7.266;2024-02-14T06:35:34;12.50;99.90
1447;DHT22;717;51.522;7.266;2024-02-14T06:38:04;12.50;99.90
1447;DHT22;717;51.522;7.266;2024-02-14T06:40:37;12.50;99.90
1447;DHT22;717;51.522;7.266;2024-02-14T06:43:07;12.60;99.90
1447;DHT22;717;51.522;7.266;2024-02-14T06:45:37;12.60;99.90
1447;DHT22;717;51.522;7.266;2024-02-14T06:48:07;12.50;99.90
1447;DHT22;717;51.522;7.266;2024-02-14T06:50:38;12.60;99.90
1447;DHT22;717;51.522;7.266;2024-02-14T06:53:07;12.60;99.90
1447;DHT22;717;51.522;7.266;2024-02-14T06:55:40;12.60;99.90
1447;DHT22;717;51.522;7.266;2024-02-14T06:58:13;12.60;99.90
1447;DHT22;717;51.522;7.266;2024-02-14T07:00:43;12.60;99.90
1447;DHT22;717;51.522;7.266;2024-02-14T07:03:13;12.60;99.90
1447;DHT22;717;51.522;7.266;2024-02-14T07:05:43;12.60;99.90
1447;DHT22;717;51.522;7.266;2024-02-14T07:08:14;12.60;99.90
1447;DHT22;717;51.522;7.266;2024-02-14T07:10:46;12.60;99.90
1447;DHT22;717;51.522;7.266;2024-02-14T07:13:16;12.70;99.90
1447;DHT22;717;51.522;7.266;2024-02-14T07:15:46;12.70;99.90
1447;DHT22;717;51.522;7.266;2024-02-14T07:18:16;12.60;99.90
1447;DHT22;717;51.522;7.266;2024-02-14T07:20:47;12.60;99.90
1447;DHT22;717;51.522;7.266;2024-02-14T07:23:18;12.60;99.90
1447;DHT22;717;51.522;7.266;2024-02-14T07:25:51;12.70;99.90
1447;DHT22;717;51.522;7.266;2024-02-14T07:28:21;12.70;99.90
1447;DHT22;717;51.522;7.266;2024-02-14T07:30:51;12.70;99.90
1447;DHT22;717;51.522;7.266;2024-02-14T07:33:21;12.70;99.90
1447;DHT22;717;51.522;7.266;2024-02-14T07:35:51;12.80;99.90
1447;DHT22;717;51.522;7.266;2024-02-14T07:38:21;12.70;99.90
1447;DHT22;717;51.522;7.266;2024-02-14T07:40:54;12.70;99.90
1447;DHT22;717;51.522;7.266;2024-02-14T07:43:24;12.80;99.90
1447;DHT22;717;51.522;7.266;2024-02-14T07:45:54;12.70;99.90
1447;DHT22;717;51.522;7.266;2024-02-14T07:48:24;12.80;99.90
1447;DHT22;717;51.522;7.266;2024-02-14T07:50:54;12.80;99.90
1447;DHT22;717;51.522;7.266;2024-02-14T07:53:26;12.80;99.90
1447;DHT22;717;51.522;7.266;2024-02-14T07:55:59;12.80;99.90
1447;DHT22;717;51.522;7.266;2024-02-14T07:58:31;12.90;99.90
1447;DHT22;717;51.522;7.266;2024-02-14T08:01:01;12.90;99.90
1447;DHT22;717;51.522;7.266;2024-02-14T08:03:31;12.90;99.90
1447;DHT22;717;51.522;7.266;2024-02-14T08:06:01;12.80;99.90
1447;DHT22;717;51.522;7.266;2024-02-14T08:08:31;12.70;99.90
1447;DHT22;717;51.522;7.266;2024-02-14T08:11:04;12.70;99.90
1447;DHT22;717;51.522;7.266;2024-02-14T08:13:34;12.70;99.90
1447;DHT22;717;51.522;7.266;2024-02-14T08:16:06;12.70;99.90
1447;DHT22;717;51.522;7.266;2024-02-14T08:18:36;12.70;99.90
1447;DHT22;717;51.522;7.266;2024-02-14T08:21:07;12.70;99.90
1447;DHT22;717;51.522;7.266;2024-02-14T08:23:37;12.70;99.90
1447;DHT22;717;51.522;7.266;2024-02-14T08:26:11;12.80;99.90
1447;DHT22;717;51.522;7.266;2024-02-14T08:28:41;12.80;99.90
1447;DHT22;717;51.522;7.266;2024-02-14T08:31:11;12.80;99.90
1447;DHT22;717;51.522;7.266;2024-02-14T08:33:41;12.80;99.90
1447;DHT22;717;51.522;7.266;2024-02-14T08:36:12;12.80;99.90
1447;DHT22;717;51.522;7.266;2024-02-14T08:38:44;12.80;99.90
1447;DHT22;717;51.522;7.266;2024-02-14T08:41:16;12.80;99.90
1447;DHT22;717;51.522;7.266;2024-02-14T08:43:47;12.80;99.90
1447;DHT22;717;51.522;7.266;2024-02-14T08:46:18;12.90;99.90
1447;DHT22;717;51.522;7.266;2024-02-14T08:48:47;12.90;99.90
1447;DHT22;717;51.522;7.266;2024-02-14T08:51:18;12.90;99.90
1447;DHT22;717;51.522;7.266;2024-02-14T08:53:48;12.90;99.90
1447;DHT22;717;51.522;7.266;2024-02-14T08:56:24;12.90;99.90
1447;DHT22;717;51.522;7.266;2024-02-14T08:58:55;12.90;99.90
1447;DHT22;717;51.522;7.266;2024-02-14T09:01:25;12.80;99.90
1447;DHT22;717;51.522;7.266;2024-02-14T09:03:55;12.90;99.90
1447;DHT22;717;51.522;7.266;2024-02-14T09:06:26;12.90;99.90
1447;DHT22;717;51.522;7.266;2024-02-14T09:08:56;13.00;99.90
1447;DHT22;717;51.522;7.266;2024-02-14T09:11:28;12.90;99.90
1447;DHT22;717;51.522;7.266;2024-02-14T09:13:59;13.00;99.90
1447;DHT22;717;51.522;7.266;2024-02-14T09:16:33;12.90;99.90
1447;DHT22;717;51.522;7.266;2024-02-14T09:19:04;12.90;99.90
1447;DHT22;717;51.522;7.266;2024-02-14T09:21:35;13.00;99.90
1447;DHT22;717;51.522;7.266;2024-02-14T09:24:05;13.00;99.90
1447;DHT22;717;51.522;7.266;2024-02-14T09:26:38;13.00;99.90
1447;DHT22;717;51.522;7.266;2024-02-14T09:29:10;13.00;99.90
1447;DHT22;717;51.522;7.266;2024-02-14T09:31:42;13.00;99.90
1447;DHT22;717;51.522;7.266;2024-02-14T09:34:14;13.00;99.90
1447;DHT22;717;51.522;7.266;2024-02-14T09:36:47;13.00;99.90
1447;DHT22;717;51.522;7.266;2024-02-14T09:39:21;13.00;99.90
1447;DHT22;717;51.522;7.266;2024-02-14T09:41:58;13.00;99.90
1447;DHT22;717;51.522;7.266;2024-02-14T09:44:29;13.00;99.90
1447;DHT22;717;51.522;7.266;2024-02-14T09:47:00;13.00;99.90
1447;DHT22;717;51.522;7.266;2024-02-14T09:49:31;13.00;99.90
1447;DHT22;717;51.522;7.266;2024-02-14T09:52:02;13.00;99.90
1447;DHT22;717;51.522;7.266;2024-02-14T09:54:33;13.00;99.90
1447;DHT22;717;51.522;7.266;2024-02-14T09:57:08;13.00;99.90
1447;DHT22;717;51.522;7.266;2024-02-14T09:59:39;13.00;99.90
1447;DHT22;717;51.522;7.266;2024-02-14T10:02:10;13.10;99.90
1447;DHT22;717;51.522;7.266;2024-02-14T10:04:40;13.10;99.90
1447;DHT22;717;51.522;7.266;2024-02-14T10:07:10;13.10;99.90
1447;DHT22;717;51.522;7.266;2024-02-14T10:09:40;13.10;99.90
1447;DHT22;717;51.522;7.266;2024-02-14T10:12:13;13.00;99.90
1447;DHT22;717;51.522;7.266;2024-02-14T10:14:44;13.10;99.90
1447;DHT22;717;51.522;7.266;2024-02-14T10:17:18;13.10;99.90
1447;DHT22;717;51.522;7.266;2024-02-14T10:19:56;13.10;99.90
1447;DHT22;717;51.522;7.266;2024-02-14T10:22:32;13.10;99.90
1447;DHT22;717;51.522;7.266;2024-02-14T10:25:04;13.10;99.90
1447;DHT22;717;51.522;7.266;2024-02-14T10:27:39;13.10;99.90
1447;DHT22;717;51.522;7.266;2024-02-14T10:30:11;13.10;99.90
1447;DHT22;717;51.522;7.266;2024-02-14T10:32:41;13.10;99.90
1447;DHT22;717;51.522;7.266;2024-02-14T10:35:15;13.10;99.90
1447;DHT22;717;51.522;7.266;2024-02-14T10:37:46;13.10;99.90
1447;DHT22;717;51.522;7.266;2024-02-14T10:40:17;13.00;99.90
1447;DHT22;717;51.522;7.266;2024-02-14T10:42:50;13.10;99.90
1447;DHT22;717;51.522;7.266;2024-02-14T10:45:21;13.10;99.90
1447;DHT22;717;51.522;7.266;2024-02-14T10:47:51;13.10;99.90
1447;DHT22;717;51.522;7.266;2024-02-14T10:50:22;13.20;99.90
1447;DHT22;717;51.522;7.266;2024-02-14T10:52:56;13.30;99.90
1447;DHT22;717;51.522;7.266;2024-02-14T10:55:28;13.30;99.90
1447;DHT22;717;51.522;7.266;2024-02-14T10:58:02;13.40;99.90
1447;DHT22;717;51.522;7.266;2024-02-14T11:00:32;13.40;99.90
1447;DHT22;717;51.522;7.266;2024-02-14T11:03:02;13.40;99.90
1447;DHT22;717;51.522;7.266;2024-02-14T11:05:43;13.40;99.90
1447;DHT22;717;51.522;7.266;2024-02-14T11:08:14;13.40;99.90
1447;DHT22;717;51.522;7.266;2024-02-14T11:10:52;13.40;99.90
1447;DHT22;717;51.522;7.266;2024-02-14T11:13:28;13.40;99.90
1447;DHT22;717;51.522;7.266;2024-02-14T11:16:00;13.50;99.90
1447;DHT22;717;51.522;7.266;2024-02-14T11:18:30;13.40;99.90
1447;DHT22;717;51.522;7.266;2024-02-14T11:21:03;13.40;99.90
1447;DHT22;717;51.522;7.266;2024-02-14T11:23:33;13.40;99.90
1447;DHT22;717;51.522;7.266;2024-02-14T11:26:04;13.40;99.90
1447;DHT22;717;51.522;7.266;2024-02-14T11:28:40;13.40;99.90
1447;DHT22;717;51.522;7.266;2024-02-14T11:31:10;13.40;99.90
1447;DHT22;717;51.522;7.266;2024-02-14T11:33:40;13.30;99.90
1447;DHT22;717;51.522;7.266;2024-02-14T11:36:13;13.40;99.90
1447;DHT22;717;51.522;7.266;2024-02-14T11:38:43;13.40;99.90
1447;DHT22;717;51.522;7.266;2024-02-14T11:41:14;13.40;99.90
1447;DHT22;717;51.522;7.266;2024-02-14T11:43:53;13.40;99.90
1447;DHT22;717;51.522;7.266;2024-02-14T11:46:23;13.40;99.90
1447;DHT22;717;51.522;7.266;2024-02-14T11:48:56;13.40;99.90
1447;DHT22;717;51.522;7.266;2024-02-14T11:51:28;13.40;99.90
1447;DHT22;717;51.522;7.266;2024-02-14T11:53:58;13.40;99.90
1447;DHT22;717;51.522;7.266;2024-02-14T11:56:31;13.40;99.90
1447;DHT22;717;51.522;7.266;2024-02-14T11:59:07;13.50;99.90
1447;DHT22;717;51.522;7.266;2024-02-14T12:01:38;13.50;99.90
1447;DHT22;717;51.522;7.266;2024-02-14T12:04:10;13.50;99.90
1447;DHT22;717;51.522;7.266;2024-02-14T12:06:40;13.50;99.90
1447;DHT22;717;51.522;7.266;2024-02-14T12:09:11;13.50;99.90
1447;DHT22;717;51.522;7.266;2024-02-14T12:11:42;13.50;99.90
1447;DHT22;717;51.522;7.266;2024-02-14T12:14:16;13.60;99.90
1447;DHT22;717;51.522;7.266;2024-02-14T12:16:51;13.50;99.90
1447;DHT22;717;51.522;7.266;2024-02-14T12:19:26;13.60;99.90
1447;DHT22;717;51.522;7.266;2024-02-14T12:21:59;13.60;99.90
1447;DHT22;717;51.522;7.266;2024-02-14T12:24:30;13.70;99.90
1447;DHT22;717;51.522;7.266;2024-02-14T12:27:00;13.70;99.90
1447;DHT22;717;51.522;7.266;2024-02-14T12:29:35;13.70;99.90
1447;DHT22;717;51.522;7.266;2024-02-14T12:32:05;13.80;99.90
1447;DHT22;717;51.522;7.266;2024-02-14T12:34:37;13.80;99.90
1447;DHT22;717;51.522;7.266;2024-02-14T12:37:07;13.80;99.90
1447;DHT22;717;51.522;7.266;2024-02-14T12:39:38;13.90;99.90
1447;DHT22;717;51.522;7.266;2024-02-14T12:42:08;13.90;99.90
1447;DHT22;717;51.522;7.266;2024-02-14T12:44:41;13.90;99.90
1447;DHT22;717;51.522;7.266;2024-02-14T12:47:11;13.90;99.90
1447;DHT22;717;51.522;7.266;2024-02-14T12:49:41;13.90;99.90
1447;DHT22;717;51.522;7.266;2024-02-14T12:52:12;13.90;99.90
1447;DHT22;717;51.522;7.266;2024-02-14T12:54:41;13.90;99.90
1447;DHT22;717;51.522;7.266;2024-02-14T12:57:14;13.80;99.90
1447;DHT22;717;51.522;7.266;2024-02-14T12:59:47;13.80;99.90
1447;DHT22;717;51.522;7.266;2024-02-14T13:02:18;13.90;99.90
1447;DHT22;717;51.522;7.266;2024-02-14T13:04:47;13.90;99.90
1447;DHT22;717;51.522;7.266;2024-02-14T13:07:17;13.90;99.90
1447;DHT22;717;51.522;7.266;2024-02-14T13:09:47;13.90;99.90
1447;DHT22;717;51.522;7.266;2024-02-14T13:12:18;13.90;99.90
1447;DHT22;717;51.522;7.266;2024-02-14T13:14:50;13.90;99.90
1447;DHT22;717;51.522;7.266;2024-02-14T13:17:20;13.80;99.90
1447;DHT22;717;51.522;7.266;2024-02-14T13:19:53;13.90;99.90
1447;DHT22;717;51.522;7.266;2024-02-14T13:22:23;13.90;99.90
1447;DHT22;717;51.522;7.266;2024-02-14T13:24:53;13.90;99.90
1447;DHT22;717;51.522;7.266;2024-02-14T13:27:23;13.90;99.90
1447;DHT22;717;51.522;7.266;2024-02-14T13:29:55;13.90;99.90
1447;DHT22;717;51.522;7.266;2024-02-14T13:32:25;14.00;99.90
1447;DHT22;717;51.522;7.266;2024-02-14T13:34:55;14.00;99.90
1447;DHT22;717;51.522;7.266;2024-02-14T13:37:25;14.00;99.90
1447;DHT22;717;51.522;7.266;2024-02-14T13:39:55;14.00;99.90
1447;DHT22;717;51.522;7.266;2024-02-14T13:42:25;14.00;99.90
1447;DHT22;717;51.522;7.266;2024-02-14T13:44:58;14.00;99.90
1447;DHT22;717;51.522;7.266;2024-02-14T13:47:27;14.00;99.90
1447;DHT22;717;51.522;7.266;2024-02-14T13:49:57;14.10;99.90
1447;DHT22;717;51.522;7.266;2024-02-14T13:52:27;14.10;99.90
1447;DHT22;717;51.522;7.266;2024-02-14T13:54:57;14.10;99.90
1447;DHT22;717;51.522;7.266;2024-02-14T13:57:29;14.10;99.90
1447;DHT22;717;51.522;7.266;2024-02-14T14:00:02;14.10;99.90
1447;DHT22;717;51.522;7.266;2024-02-14T14:02:38;14.20;99.90
1447;DHT22;717;51.522;7.266;2024-02-14T14:05:10;14.20;99.90
1447;DHT22;717;51.522;7.266;2024-02-14T14:07:44;14.20;99.90
1447;DHT22;717;51.522;7.266;2024-02-14T14:10:24;14.20;99.90
1447;DHT22;717;51.522;7.266;2024-02-14T14:12:56;14.20;99.90
1447;DHT22;717;51.522;7.266;2024-02-14T14:15:28;14.30;99.90
1447;DHT22;717;51.522;7.266;2024-02-14T14:18:00;14.30;99.90
1447;DHT22;717;51.522;7.266;2024-02-14T14:20:30;14.30;99.90
1447;DHT22;717;51.522;7.266;2024-02-14T14:23:00;14.30;99.90
1447;DHT22;717;51.522;7.266;2024-02-14T14:25:30;14.30;99.90
1447;DHT22;717;51.522;7.266;2024-02-14T14:28:00;14.30;99.90
1447;DHT22;717;51.522;7.266;2024-02-14T14:30:36;14.30;99.90
1447;DHT22;717;51.522;7.266;2024-02-14T14:33:06;14.30;99.90
1447;DHT22;717;51.522;7.266;2024-02-14T14:35:36;14.30;99.90
1447;DHT22;717;51.522;7.266;2024-02-14T14:38:06;14.30;99.90
1447;DHT22;717;51.522;7.266;2024-02-14T14:40:36;14.20;99.90
1447;DHT22;717;51.522;7.266;2024-02-14T14:43:06;14.20;99.90
1447;DHT22;717;51.522;7.266;2024-02-14T14:45:39;14.20;99.90
1447;DHT22;717;51.522;7.266;2024-02-14T14:48:09;14.20;99.90
1447;DHT22;717;51.522;7.266;2024-02-14T14:50:39;14.30;99.90
1447;DHT22;717;51.522;7.266;2024-02-14T14:53:10;14.20;99.90
1447;DHT22;717;51.522;7.266;2024-02-14T14:55:50;14.20;99.90
1447;DHT22;717;51.522;7.266;2024-02-14T14:58:20;14.20;99.90
1447;DHT22;717;51.522;7.266;2024-02-14T15:00:57;14.20;99.90
1447;DHT22;717;51.522;7.266;2024-02-14T15:03:27;14.20;99.90
1447;DHT22;717;51.522;7.266;2024-02-14T15:05:57;14.30;99.90
1447;DHT22;717;51.522;7.266;2024-02-14T15:08:27;14.30;99.90
1447;DHT22;717;51.522;7.266;2024-02-14T15:10:58;14.20;99.90
1447;DHT22;717;51.522;7.266;2024-02-14T15:13:27;14.20;99.90
1447;DHT22;717;51.522;7.266;2024-02-14T15:16:01;14.10;99.90
1447;DHT22;717;51.522;7.266;2024-02-14T15:18:33;14.10;99.90
1447;DHT22;717;51.522;7.266;2024-02-14T15:21:03;14.10;99.90
1447;DHT22;717;51.522;7.266;2024-02-14T15:23:34;14.10;99.90
1447;DHT22;717;51.522;7.266;2024-02-14T15:26:04;14.10;99.90
1447;DHT22;717;51.522;7.266;2024-02-14T15:28:39;14.10;99.90
1447;DHT22;717;51.522;7.266;2024-02-14T15:31:14;14.00;99.90
1447;DHT22;717;51.522;7.266;2024-02-14T15:33:57;14.10;99.90
1447;DHT22;717;51.522;7.266;2024-02-14T15:36:27;14.10;99.90
1447;DHT22;717;51.522;7.266;2024-02-14T15:38:57;14.10;99.90
1447;DHT22;717;51.522;7.266;2024-02-14T15:41:27;14.10;99.90
1447;DHT22;717;51.522;7.266;2024-02-14T15:43:57;14.10;99.90
1447;DHT22;717;51.522;7.266;2024-02-14T15:46:30;14.10;99.90
1447;DHT22;717;51.522;7.266;2024-02-14T15:49:00;14.10;99.90
1447;DHT22;717;51.522;7.266;2024-02-14T15:51:30;14.10;99.90
1447;DHT22;717;51.522;7.266;2024-02-14T15:54:00;14.10;99.90
1447;DHT22;717;51.522;7.266;2024-02-14T15:56:31;14.00;99.90
1447;DHT22;717;51.522;7.266;2024-02-14T15:59:01;14.10;99.90
1447;DHT22;717;51.522;7.266;2024-02-14T16:01:34;14.10;99.90
1447;DHT22;717;51.522;7.266;2024-02-14T16:04:05;14.10;99.90
1447;DHT22;717;51.522;7.266;2024-02-14T16:06:35;14.10;99.90
1447;DHT22;717;51.522;7.266;2024-02-14T16:09:05;14.10;99.90
1447;DHT22;717;51.522;7.266;2024-02-14T16:11:36;14.10;99.90
1447;DHT22;717;51.522;7.266;2024-02-14T16:14:05;14.20;99.90
1447;DHT22;717;51.522;7.266;2024-02-14T16:16:38;14.10;99.90
1447;DHT22;717;51.522;7.266;2024-02-14T16:19:09;14.10;99.90
1447;DHT22;717;51.522;7.266;2024-02-14T16:21:39;14.00;99.90
1447;DHT22;717;51.522;7.266;2024-02-14T16:24:09;14.10;99.90
1447;DHT22;717;51.522;7.266;2024-02-14T16:26:39;14.20;99.90
1447;DHT22;717;51.522;7.266;2024-02-14T16:29:09;14.20;99.90
1447;DHT22;717;51.522;7.266;2024-02-14T16:31:41;14.10;99.90
1447;DHT22;717;51.522;7.266;2024-02-14T16:34:14;14.10;99.90
1447;DHT22;717;51.522;7.266;2024-02-14T16:36:44;14.10;99.90
1447;DHT22;717;51.522;7.266;2024-02-14T16:39:14;14.10;99.90
1447;DHT22;717;51.522;7.266;2024-02-14T16:42:05;14.10;99.90